createdAt,value
2016-12-27T00:00:29.883Z,0
2016-12-27T00:01:36.140Z,0
2016-12-27T00:02:40.682Z,0
2016-12-27T00:03:45.993Z,0
2016-12-27T00:04:51.321Z,0
2016-12-27T00:05:56.524Z,0
2016-12-27T00:07:01.738Z,0
2016-12-27T00:08:05.957Z,0
2016-12-27T00:09:12.123Z,0
2016-12-27T00:10:18.288Z,0
2016-12-27T00:11:24.461Z,0
2016-12-27T00:12:29.654Z,0
2016-12-27T00:13:33.880Z,0
2016-12-27T00:14:40.075Z,0
2016-12-27T00:15:43.303Z,0
2016-12-27T00:16:46.530Z,0
2016-12-27T00:17:52.699Z,0
2016-12-27T00:18:55.989Z,0
2016-12-27T00:20:02.131Z,0
2016-12-27T00:21:06.374Z,0
2016-12-27T00:22:08.679Z,0
2016-12-27T00:23:13.876Z,0
2016-12-27T00:24:20.084Z,0
2016-12-27T00:25:26.252Z,0
2016-12-27T00:26:32.421Z,0
2016-12-27T00:27:38.598Z,0
2016-12-27T00:28:44.771Z,0
2016-12-27T00:29:50.944Z,0
2016-12-27T00:30:57.108Z,0
2016-12-27T00:32:02.311Z,0
2016-12-27T00:33:08.472Z,0
2016-12-27T00:34:13.731Z,0
2016-12-27T00:35:18.908Z,0
2016-12-27T00:36:24.074Z,0
2016-12-27T00:37:30.252Z,0
2016-12-27T00:38:36.412Z,0
2016-12-27T00:39:41.664Z,0
2016-12-27T00:40:46.832Z,0
2016-12-27T00:41:51.062Z,0
2016-12-27T00:42:56.268Z,0
2016-12-27T00:44:02.427Z,0
2016-12-27T00:45:07.636Z,0
2016-12-27T00:46:11.839Z,0
2016-12-27T00:47:17.089Z,0
2016-12-27T00:48:22.263Z,0
2016-12-27T00:49:27.472Z,0
2016-12-27T00:50:32.670Z,0
2016-12-27T00:51:38.836Z,0
2016-12-27T00:52:43.122Z,0
2016-12-27T00:53:47.423Z,0
2016-12-27T00:54:51.664Z,0
2016-12-27T00:55:56.193Z,0
2016-12-27T00:57:02.358Z,0
2016-12-27T00:58:08.521Z,0
2016-12-27T00:59:14.691Z,0
2016-12-27T01:00:18.943Z,0
2016-12-27T01:01:25.109Z,0
2016-12-27T01:02:30.017Z,0
2016-12-27T01:03:35.217Z,0
2016-12-27T01:04:40.386Z,0
2016-12-27T01:05:45.575Z,0
2016-12-27T01:06:51.740Z,0
2016-12-27T01:07:57.909Z,0
2016-12-27T01:09:04.126Z,0
2016-12-27T01:10:10.286Z,0
2016-12-27T01:11:16.456Z,0
2016-12-27T01:12:22.627Z,0
2016-12-27T01:13:27.821Z,0
2016-12-27T01:14:31.157Z,0
2016-12-27T01:15:36.342Z,0
2016-12-27T01:16:41.654Z,0
2016-12-27T01:17:46.245Z,0
2016-12-27T01:18:51.580Z,0
2016-12-27T01:19:57.720Z,0
2016-12-27T01:21:02.916Z,0
2016-12-27T01:22:08.117Z,0
2016-12-27T01:23:14.473Z,0
2016-12-27T01:24:17.716Z,0
2016-12-27T01:25:21.930Z,0
2016-12-27T01:26:28.136Z,0
2016-12-27T01:27:33.316Z,0
2016-12-27T01:28:38.476Z,0
2016-12-27T01:29:42.737Z,0
2016-12-27T01:30:47.989Z,0
2016-12-27T01:31:53.185Z,0
2016-12-27T01:32:59.338Z,0
2016-12-27T01:34:04.528Z,0
2016-12-27T01:35:09.722Z,0
2016-12-27T01:36:13.944Z,0
2016-12-27T01:37:18.245Z,0
2016-12-27T01:38:21.501Z,0
2016-12-27T01:39:27.664Z,0
2016-12-27T01:40:32.858Z,0
2016-12-27T01:41:39.069Z,0
2016-12-27T01:42:44.228Z,0
2016-12-27T01:43:49.480Z,0
2016-12-27T01:44:54.721Z,0
2016-12-27T01:46:00.859Z,0
2016-12-27T01:47:05.067Z,0
2016-12-27T01:48:11.233Z,0
2016-12-27T01:49:17.398Z,0
2016-12-27T01:50:23.566Z,0
2016-12-27T01:51:29.773Z,0
2016-12-27T01:52:35.907Z,0
2016-12-27T01:53:40.162Z,0
2016-12-27T01:54:45.312Z,0
2016-12-27T01:55:50.516Z,0
2016-12-27T01:56:53.780Z,0
2016-12-27T01:57:58.977Z,0
2016-12-27T01:59:05.149Z,0
2016-12-27T02:00:10.352Z,0
2016-12-27T02:01:15.555Z,0
2016-12-27T02:02:20.732Z,0
2016-12-27T02:03:25.903Z,0
2016-12-27T02:04:31.064Z,0
2016-12-27T02:05:36.254Z,0
2016-12-27T02:06:42.424Z,0
2016-12-27T02:07:48.590Z,0
2016-12-27T02:08:53.789Z,0
2016-12-27T02:09:59.951Z,0
2016-12-27T02:11:05.151Z,0
2016-12-27T02:12:11.358Z,0
2016-12-27T02:13:16.519Z,0
2016-12-27T02:14:21.827Z,0
2016-12-27T02:15:25.175Z,0
2016-12-27T02:16:29.383Z,0
2016-12-27T02:17:35.549Z,0
2016-12-27T02:18:38.812Z,0
2016-12-27T02:19:44.981Z,0
2016-12-27T02:20:50.173Z,0
2016-12-27T02:21:55.392Z,0
2016-12-27T02:23:01.556Z,0
2016-12-27T02:24:05.796Z,0
2016-12-27T02:25:10.096Z,0
2016-12-27T02:26:16.258Z,0
2016-12-27T02:27:22.422Z,0
2016-12-27T02:28:28.650Z,0
2016-12-27T02:29:34.843Z,0
2016-12-27T02:30:39.983Z,0
2016-12-27T02:31:45.146Z,0
2016-12-27T02:32:50.346Z,0
2016-12-27T02:33:55.548Z,0
2016-12-27T02:35:01.719Z,0
2016-12-27T02:36:07.886Z,0
2016-12-27T02:37:14.047Z,0
2016-12-27T02:38:19.249Z,0
2016-12-27T02:39:24.436Z,0
2016-12-27T02:40:30.652Z,0
2016-12-27T02:41:35.858Z,0
2016-12-27T02:42:41.061Z,0
2016-12-27T02:43:45.326Z,0
2016-12-27T02:44:50.473Z,0
2016-12-27T02:45:56.634Z,0
2016-12-27T02:47:01.891Z,0
2016-12-27T02:48:07.113Z,0
2016-12-27T02:49:09.363Z,0
2016-12-27T02:50:15.527Z,0
2016-12-27T02:51:20.698Z,0
2016-12-27T02:52:25.936Z,0
2016-12-27T02:53:32.076Z,0
2016-12-27T02:54:38.239Z,0
2016-12-27T02:55:44.401Z,0
2016-12-27T02:56:50.566Z,0
2016-12-27T02:57:53.806Z,0
2016-12-27T02:58:59.002Z,0
2016-12-27T03:00:05.169Z,0
2016-12-27T03:01:11.343Z,0
2016-12-27T03:02:16.518Z,0
2016-12-27T03:03:20.743Z,0
2016-12-27T03:04:26.903Z,0
2016-12-27T03:05:33.084Z,0
2016-12-27T03:06:39.254Z,0
2016-12-27T03:07:45.485Z,0
2016-12-27T03:08:50.681Z,0
2016-12-27T03:11:01.072Z,0
2016-12-27T03:12:06.306Z,0
2016-12-27T03:13:12.472Z,0
2016-12-27T03:14:18.699Z,0
2016-12-27T03:15:22.195Z,0
2016-12-27T03:16:26.426Z,0
2016-12-27T03:17:32.585Z,0
2016-12-27T03:18:37.845Z,0
2016-12-27T03:19:44.013Z,0
2016-12-27T03:20:50.174Z,0
2016-12-27T03:21:54.397Z,0
2016-12-27T03:23:00.574Z,0
2016-12-27T03:24:05.832Z,0
2016-12-27T03:25:10.072Z,0
2016-12-27T03:26:14.349Z,0
2016-12-27T03:27:17.612Z,0
2016-12-27T03:28:22.913Z,0
2016-12-27T03:29:29.075Z,0
2016-12-27T03:30:33.307Z,0
2016-12-27T03:31:38.502Z,0
2016-12-27T03:32:43.709Z,0
2016-12-27T03:33:49.884Z,0
2016-12-27T03:34:56.054Z,0
2016-12-27T03:36:02.216Z,0
2016-12-27T03:37:07.416Z,0
2016-12-27T03:38:12.632Z,0
2016-12-27T03:39:17.779Z,0
2016-12-27T03:40:23.943Z,0
2016-12-27T03:41:29.144Z,0
2016-12-27T03:42:35.319Z,0
2016-12-27T03:43:39.562Z,0
2016-12-27T03:44:45.742Z,0
2016-12-27T03:45:51.913Z,0
2016-12-27T03:46:57.109Z,0
2016-12-27T03:48:01.359Z,0
2016-12-27T03:49:06.558Z,0
2016-12-27T03:50:12.721Z,0
2016-12-27T03:51:17.972Z,0
2016-12-27T03:52:22.168Z,0
2016-12-27T03:54:32.565Z,0
2016-12-27T03:55:37.763Z,0
2016-12-27T03:56:42.955Z,0
2016-12-27T03:57:48.161Z,0
2016-12-27T03:58:53.345Z,0
2016-12-27T03:59:57.550Z,0
2016-12-27T04:01:03.724Z,0
2016-12-27T04:02:09.894Z,0
2016-12-27T04:03:13.153Z,0
2016-12-27T04:04:17.405Z,0
2016-12-27T04:05:23.553Z,0
2016-12-27T04:06:28.774Z,0
2016-12-27T04:07:33.974Z,0
2016-12-27T04:08:38.206Z,0
2016-12-27T04:09:43.399Z,0
2016-12-27T04:10:49.569Z,0
2016-12-27T04:11:54.766Z,0
2016-12-27T04:12:59.118Z,0
2016-12-27T04:14:05.286Z,0
2016-12-27T04:15:09.544Z,0
2016-12-27T04:16:15.674Z,0
2016-12-27T04:17:21.971Z,0
2016-12-27T04:18:28.091Z,0
2016-12-27T04:19:33.292Z,0
2016-12-27T04:20:39.496Z,0
2016-12-27T04:21:45.672Z,0
2016-12-27T04:22:50.795Z,0
2016-12-27T04:23:55.967Z,0
2016-12-27T04:25:02.129Z,0
2016-12-27T04:26:07.396Z,0
2016-12-27T04:27:12.631Z,0
2016-12-27T04:28:17.774Z,0
2016-12-27T04:29:22.033Z,0
2016-12-27T04:30:27.198Z,0
2016-12-27T04:31:33.365Z,0
2016-12-27T04:32:38.568Z,0
2016-12-27T04:33:44.738Z,0
2016-12-27T04:34:49.911Z,0
2016-12-27T04:35:56.096Z,0
2016-12-27T04:37:02.254Z,0
2016-12-27T04:38:07.454Z,0
2016-12-27T04:39:10.690Z,0
2016-12-27T04:40:15.870Z,0
2016-12-27T04:41:22.086Z,0
2016-12-27T04:42:26.330Z,0
2016-12-27T04:43:32.471Z,0
2016-12-27T04:44:37.687Z,0
2016-12-27T04:45:41.889Z,0
2016-12-27T04:46:48.060Z,0
2016-12-27T04:47:54.295Z,0
2016-12-27T04:48:57.802Z,0
2016-12-27T04:50:03.976Z,0
2016-12-27T04:51:10.132Z,0
2016-12-27T04:52:14.444Z,0
2016-12-27T04:53:20.713Z,0
2016-12-27T04:54:26.060Z,0
2016-12-27T04:55:31.214Z,0
2016-12-27T04:56:37.377Z,0
2016-12-27T04:57:42.585Z,0
2016-12-27T04:58:48.746Z,0
2016-12-27T04:59:53.943Z,0
2016-12-27T05:00:58.222Z,0
2016-12-27T05:02:04.392Z,0
2016-12-27T05:03:09.594Z,0
2016-12-27T05:04:15.764Z,0
2016-12-27T05:05:21.926Z,0
2016-12-27T05:06:26.250Z,0
2016-12-27T05:07:31.453Z,0
2016-12-27T05:08:37.617Z,0
2016-12-27T05:09:42.868Z,0
2016-12-27T05:10:48.063Z,0
2016-12-27T05:11:54.252Z,0
2016-12-27T05:12:59.434Z,0
2016-12-27T05:14:04.605Z,0
2016-12-27T05:15:09.818Z,0
2016-12-27T05:16:15.016Z,0
2016-12-27T05:17:21.189Z,0
2016-12-27T05:18:27.353Z,0
2016-12-27T05:19:32.607Z,0
2016-12-27T05:20:35.839Z,0
2016-12-27T05:21:42.013Z,0
2016-12-27T05:22:47.209Z,0
2016-12-27T05:23:52.407Z,0
2016-12-27T05:24:58.574Z,0
2016-12-27T05:26:04.729Z,0
2016-12-27T05:27:09.933Z,0
2016-12-27T05:28:14.165Z,0
2016-12-27T05:29:20.332Z,0
2016-12-27T05:30:23.616Z,0
2016-12-27T05:31:28.811Z,0
2016-12-27T05:32:33.044Z,0
2016-12-27T05:33:38.237Z,0
2016-12-27T05:34:44.408Z,0
2016-12-27T05:35:49.596Z,0
2016-12-27T05:36:54.794Z,0
2016-12-27T05:38:00.959Z,0
2016-12-27T05:39:06.129Z,0
2016-12-27T05:40:11.335Z,0
2016-12-27T05:41:16.545Z,0
2016-12-27T05:42:22.824Z,0
2016-12-27T05:43:27.033Z,0
2016-12-27T05:44:31.237Z,0
2016-12-27T05:45:36.519Z,0
2016-12-27T05:46:41.748Z,0
2016-12-27T05:47:46.909Z,0
2016-12-27T05:48:52.138Z,0
2016-12-27T05:49:57.292Z,0
2016-12-27T05:51:02.492Z,0
2016-12-27T05:52:07.695Z,0
2016-12-27T05:53:12.899Z,0
2016-12-27T05:54:18.094Z,0
2016-12-27T05:55:22.330Z,0
2016-12-27T05:56:26.538Z,0
2016-12-27T05:57:31.786Z,0
2016-12-27T05:58:36.944Z,0
2016-12-27T05:59:41.166Z,0
2016-12-27T06:00:47.340Z,0
2016-12-27T06:01:53.510Z,0
2016-12-27T06:02:57.765Z,0
2016-12-27T06:04:02.977Z,0
2016-12-27T06:05:08.230Z,0
2016-12-27T06:06:13.390Z,0
2016-12-27T06:07:18.590Z,0
2016-12-27T06:08:23.790Z,0
2016-12-27T06:09:28.070Z,0
2016-12-27T06:11:38.463Z,0
2016-12-27T06:12:43.662Z,0
2016-12-27T06:13:49.814Z,0
2016-12-27T06:14:55.016Z,0
2016-12-27T06:15:59.253Z,0
2016-12-27T06:17:04.447Z,0
2016-12-27T06:18:10.613Z,0
2016-12-27T06:19:15.865Z,0
2016-12-27T06:20:22.028Z,0
2016-12-27T06:21:27.224Z,0
2016-12-27T06:22:32.516Z,0
2016-12-27T06:23:36.716Z,0
2016-12-27T06:24:41.939Z,0
2016-12-27T06:25:45.188Z,0
2016-12-27T06:26:50.388Z,0
2016-12-27T06:27:56.548Z,0
2016-12-27T06:29:01.748Z,0
2016-12-27T06:30:06.943Z,0
2016-12-27T06:31:12.890Z,0
2016-12-27T06:32:19.059Z,0
2016-12-27T06:33:24.266Z,0
2016-12-27T06:34:29.502Z,0
2016-12-27T06:35:33.658Z,0
2016-12-27T06:36:39.827Z,0
2016-12-27T06:37:44.051Z,0
2016-12-27T06:38:47.421Z,0
2016-12-27T06:39:52.594Z,0
2016-12-27T06:40:57.860Z,0
2016-12-27T06:42:03.072Z,0
2016-12-27T06:43:08.238Z,0
2016-12-27T06:44:12.467Z,0
2016-12-27T06:45:18.639Z,0
2016-12-27T06:46:22.838Z,0
2016-12-27T06:47:29.006Z,0
2016-12-27T06:48:34.204Z,0
2016-12-27T06:49:39.407Z,0
2016-12-27T06:50:45.594Z,0
2016-12-27T06:51:50.795Z,0
2016-12-27T06:52:56.961Z,0
2016-12-27T06:54:03.128Z,0
2016-12-27T06:55:08.432Z,0
2016-12-27T06:56:12.663Z,0
2016-12-27T06:57:16.918Z,0
2016-12-27T06:58:21.122Z,4
2016-12-27T06:59:27.286Z,0
2016-12-27T07:00:32.486Z,4
2016-12-27T07:01:36.706Z,0
2016-12-27T07:02:42.874Z,4
2016-12-27T07:03:48.056Z,4
2016-12-27T07:04:53.291Z,4
2016-12-27T07:05:56.551Z,4
2016-12-27T07:07:01.869Z,8
2016-12-27T07:08:08.007Z,4
2016-12-27T07:09:11.669Z,8
2016-12-27T07:10:16.832Z,8
2016-12-27T07:11:22.077Z,12
2016-12-27T07:12:27.285Z,12
2016-12-27T07:13:31.680Z,12
2016-12-27T07:14:36.853Z,16
2016-12-27T07:15:43.035Z,20
2016-12-27T07:16:46.294Z,24
2016-12-27T07:17:52.426Z,24
2016-12-27T07:18:57.633Z,32
2016-12-27T07:20:02.839Z,40
2016-12-27T07:21:09.007Z,40
2016-12-27T07:22:15.237Z,44
2016-12-27T07:23:19.471Z,48
2016-12-27T07:24:24.665Z,52
2016-12-27T07:25:29.899Z,60
2016-12-27T07:26:34.126Z,68
2016-12-27T07:27:39.326Z,72
2016-12-27T07:28:44.500Z,84
2016-12-27T07:29:49.663Z,96
2016-12-27T07:30:54.865Z,108
2016-12-27T07:32:01.027Z,120
2016-12-27T07:33:05.321Z,124
2016-12-27T07:34:10.531Z,128
2016-12-27T07:35:15.733Z,132
2016-12-27T07:36:20.912Z,132
2016-12-27T07:37:24.263Z,128
2016-12-27T07:38:30.043Z,128
2016-12-27T07:39:35.237Z,132
2016-12-27T07:40:38.495Z,140
2016-12-27T07:41:44.666Z,156
2016-12-27T07:42:48.873Z,176
2016-12-27T07:43:54.100Z,200
2016-12-27T07:44:59.296Z,220
2016-12-27T07:46:05.520Z,248
2016-12-27T07:47:11.683Z,260
2016-12-27T07:48:16.876Z,268
2016-12-27T07:49:21.116Z,268
2016-12-27T07:50:24.380Z,276
2016-12-27T07:51:27.615Z,284
2016-12-27T07:52:33.780Z,292
2016-12-27T07:53:38.970Z,308
2016-12-27T07:54:43.172Z,336
2016-12-27T07:55:49.441Z,360
2016-12-27T07:56:55.608Z,376
2016-12-27T07:58:01.799Z,396
2016-12-27T07:59:07.964Z,416
2016-12-27T08:00:13.134Z,416
2016-12-27T08:01:17.357Z,440
2016-12-27T08:02:22.569Z,464
2016-12-27T08:03:28.774Z,460
2016-12-27T08:04:34.906Z,468
2016-12-27T08:05:40.105Z,484
2016-12-27T08:06:44.335Z,492
2016-12-27T08:07:49.539Z,500
2016-12-27T08:08:54.752Z,504
2016-12-27T08:10:00.014Z,508
2016-12-27T08:11:06.201Z,484
2016-12-27T08:12:12.365Z,452
2016-12-27T08:13:17.552Z,464
2016-12-27T08:14:22.744Z,508
2016-12-27T08:15:27.942Z,548
2016-12-27T08:16:34.110Z,556
2016-12-27T08:17:37.375Z,572
2016-12-27T08:18:42.575Z,596
2016-12-27T08:19:47.775Z,628
2016-12-27T08:20:52.967Z,680
2016-12-27T08:21:59.136Z,728
2016-12-27T08:23:04.407Z,804
2016-12-27T08:24:08.667Z,812
2016-12-27T08:25:14.873Z,824
2016-12-27T08:26:19.999Z,848
2016-12-27T08:27:26.273Z,852
2016-12-27T08:28:32.443Z,928
2016-12-27T08:29:37.638Z,924
2016-12-27T08:30:43.814Z,872
2016-12-27T08:31:49.009Z,868
2016-12-27T08:32:54.177Z,908
2016-12-27T08:34:00.356Z,908
2016-12-27T08:35:05.565Z,904
2016-12-27T08:36:11.728Z,936
2016-12-27T08:37:16.925Z,1048
2016-12-27T08:38:21.158Z,1200
2016-12-27T08:39:27.321Z,1352
2016-12-27T08:40:33.542Z,1468
2016-12-27T08:41:39.657Z,1576
2016-12-27T08:42:44.932Z,1652
2016-12-27T08:43:50.167Z,1704
2016-12-27T08:44:56.366Z,1720
2016-12-27T08:46:01.502Z,1796
2016-12-27T08:47:06.668Z,1968
2016-12-27T08:48:12.834Z,2108
2016-12-27T08:49:19.061Z,2200
2016-12-27T08:50:24.365Z,2368
2016-12-27T08:51:29.564Z,2392
2016-12-27T08:52:33.790Z,2396
2016-12-27T08:53:39.958Z,2528
2016-12-27T08:54:45.251Z,2536
2016-12-27T08:55:51.417Z,2548
2016-12-27T08:56:56.617Z,2536
2016-12-27T08:58:01.675Z,2432
2016-12-27T08:59:07.841Z,2464
2016-12-27T09:00:14.063Z,2468
2016-12-27T09:01:19.234Z,2564
2016-12-27T09:02:25.405Z,2724
2016-12-27T09:03:30.606Z,2576
2016-12-27T09:04:35.812Z,2480
2016-12-27T09:05:40.037Z,2424
2016-12-27T09:06:45.209Z,2520
2016-12-27T09:07:50.379Z,2552
2016-12-27T09:08:56.587Z,2784
2016-12-27T09:10:00.817Z,2992
2016-12-27T09:11:07.024Z,3244
2016-12-27T09:12:12.226Z,3128
2016-12-27T09:13:14.504Z,3148
2016-12-27T09:14:18.707Z,3176
2016-12-27T09:15:23.877Z,3080
2016-12-27T09:16:28.101Z,2656
2016-12-27T09:17:33.267Z,2548
2016-12-27T09:18:38.517Z,3216
2016-12-27T09:19:44.645Z,3428
2016-12-27T09:20:47.930Z,3004
2016-12-27T09:21:52.302Z,2552
2016-12-27T09:22:58.537Z,2572
2016-12-27T09:24:02.748Z,2652
2016-12-27T09:25:07.984Z,2560
2016-12-27T09:26:13.115Z,2700
2016-12-27T09:27:19.279Z,2700
2016-12-27T09:28:25.468Z,3044
2016-12-27T09:29:31.639Z,3248
2016-12-27T09:30:36.840Z,3236
2016-12-27T09:31:42.017Z,3388
2016-12-27T09:32:46.291Z,3400
2016-12-27T09:33:52.404Z,3252
2016-12-27T09:34:57.591Z,3396
2016-12-27T09:36:02.802Z,4060
2016-12-27T09:37:09.100Z,4176
2016-12-27T09:38:15.020Z,4332
2016-12-27T09:39:20.221Z,4408
2016-12-27T09:40:25.425Z,4668
2016-12-27T09:41:29.654Z,4620
2016-12-27T09:42:33.923Z,4736
2016-12-27T09:43:39.121Z,7600
2016-12-27T09:44:45.284Z,4544
2016-12-27T09:45:48.522Z,4260
2016-12-27T09:46:54.701Z,3964
2016-12-27T09:47:59.899Z,3816
2016-12-27T09:49:06.069Z,5024
2016-12-27T09:50:12.246Z,10292
2016-12-27T09:51:18.415Z,6180
2016-12-27T09:52:21.683Z,9320
2016-12-27T09:53:27.854Z,12904
2016-12-27T09:54:33.062Z,12108
2016-12-27T09:55:38.257Z,13536
2016-12-27T09:56:43.464Z,12552
2016-12-27T09:57:49.636Z,12284
2016-12-27T09:58:55.808Z,10780
2016-12-27T10:00:01.068Z,11340
2016-12-27T10:01:07.240Z,11772
2016-12-27T10:02:12.436Z,11896
2016-12-27T10:03:17.637Z,12268
2016-12-27T10:04:20.913Z,12588
2016-12-27T10:05:26.093Z,12640
2016-12-27T10:06:30.327Z,12708
2016-12-27T10:07:35.508Z,12828
2016-12-27T10:08:40.682Z,12748
2016-12-27T10:09:44.920Z,12888
2016-12-27T10:10:50.133Z,13004
2016-12-27T10:11:56.305Z,12944
2016-12-27T10:13:01.503Z,13200
2016-12-27T10:14:07.674Z,13464
2016-12-27T10:15:11.920Z,13736
2016-12-27T10:16:18.215Z,13616
2016-12-27T10:17:24.463Z,13620
2016-12-27T10:18:29.668Z,13896
2016-12-27T10:19:33.906Z,13348
2016-12-27T10:20:38.138Z,13928
2016-12-27T10:21:44.343Z,13996
2016-12-27T10:22:49.558Z,13800
2016-12-27T10:23:55.694Z,13764
2016-12-27T10:25:01.885Z,14012
2016-12-27T10:26:07.067Z,13736
2016-12-27T10:27:12.287Z,13324
2016-12-27T10:28:18.470Z,13092
2016-12-27T10:29:23.672Z,13656
2016-12-27T10:30:27.974Z,13920
2016-12-27T10:31:32.266Z,13856
2016-12-27T10:32:37.422Z,13828
2016-12-27T10:33:41.782Z,13528
2016-12-27T10:34:47.062Z,13764
2016-12-27T10:35:53.431Z,15360
2016-12-27T10:36:59.578Z,14720
2016-12-27T10:38:04.795Z,13800
2016-12-27T10:39:10.969Z,13536
2016-12-27T10:40:16.170Z,13336
2016-12-27T10:41:22.340Z,13352
2016-12-27T10:42:27.584Z,12980
2016-12-27T10:43:33.757Z,12596
2016-12-27T10:44:38.967Z,12520
2016-12-27T10:45:43.172Z,12828
2016-12-27T10:46:49.345Z,13288
2016-12-27T10:47:54.558Z,13220
2016-12-27T10:49:00.772Z,12932
2016-12-27T10:50:06.977Z,12080
2016-12-27T10:51:12.149Z,8260
2016-12-27T10:52:18.416Z,5284
2016-12-27T10:53:23.624Z,4976
2016-12-27T10:54:27.837Z,4796
2016-12-27T10:55:31.114Z,4696
2016-12-27T10:56:36.466Z,4676
2016-12-27T10:57:42.639Z,4640
2016-12-27T10:58:46.879Z,4600
2016-12-27T10:59:52.078Z,4484
2016-12-27T11:00:57.279Z,7116
2016-12-27T11:02:01.490Z,10084
2016-12-27T11:03:07.670Z,5860
2016-12-27T11:04:12.875Z,4224
2016-12-27T11:05:17.196Z,4136
2016-12-27T11:06:23.337Z,4032
2016-12-27T11:07:29.514Z,3984
2016-12-27T11:08:35.739Z,3940
2016-12-27T11:09:41.910Z,3892
2016-12-27T11:10:48.090Z,3864
2016-12-27T11:11:53.339Z,3832
2016-12-27T11:12:56.608Z,3804
2016-12-27T11:14:01.868Z,3764
2016-12-27T11:15:08.123Z,3760
2016-12-27T11:16:13.615Z,3768
2016-12-27T11:17:18.823Z,3776
2016-12-27T11:18:24.989Z,3736
2016-12-27T11:19:31.180Z,3732
2016-12-27T11:20:37.342Z,3684
2016-12-27T11:21:42.553Z,3700
2016-12-27T11:22:46.787Z,3576
2016-12-27T11:23:52.047Z,3520
2016-12-27T11:24:55.231Z,3492
2016-12-27T11:25:59.487Z,3468
2016-12-27T11:27:04.662Z,3476
2016-12-27T11:28:10.840Z,3480
2016-12-27T11:29:17.011Z,3472
2016-12-27T11:30:23.200Z,3408
2016-12-27T11:31:28.494Z,3400
2016-12-27T11:32:33.696Z,3408
2016-12-27T11:33:39.901Z,3344
2016-12-27T11:34:45.095Z,3956
2016-12-27T11:35:51.266Z,3660
2016-12-27T11:36:56.542Z,3904
2016-12-27T11:38:00.760Z,3736
2016-12-27T11:39:05.963Z,3684
2016-12-27T11:40:12.142Z,3592
2016-12-27T11:41:17.320Z,3640
2016-12-27T11:42:23.236Z,3424
2016-12-27T11:43:28.454Z,3664
2016-12-27T11:44:32.658Z,3916
2016-12-27T11:45:38.826Z,4152
2016-12-27T11:46:44.030Z,3600
2016-12-27T11:47:49.235Z,3568
2016-12-27T11:48:53.448Z,4672
2016-12-27T11:49:59.619Z,3408
2016-12-27T11:51:04.931Z,3280
2016-12-27T11:52:11.132Z,3116
2016-12-27T11:53:17.279Z,3044
2016-12-27T11:54:20.517Z,2996
2016-12-27T11:55:25.837Z,2964
2016-12-27T11:56:30.693Z,2948
2016-12-27T11:57:35.966Z,2944
2016-12-27T11:58:41.236Z,2952
2016-12-27T11:59:46.482Z,2976
2016-12-27T12:00:52.761Z,2904
2016-12-27T12:01:58.028Z,2912
2016-12-27T12:03:03.239Z,2940
2016-12-27T12:04:07.489Z,2856
2016-12-27T12:05:13.647Z,2720
2016-12-27T12:06:19.890Z,2708
2016-12-27T12:07:24.247Z,2676
2016-12-27T12:08:30.413Z,2712
2016-12-27T12:09:34.674Z,2824
2016-12-27T12:10:38.928Z,2864
2016-12-27T12:11:44.140Z,2888
2016-12-27T12:12:50.386Z,2880
2016-12-27T12:13:55.661Z,2908
2016-12-27T12:14:59.901Z,2812
2016-12-27T12:16:05.151Z,2776
2016-12-27T12:17:11.314Z,2572
2016-12-27T12:18:15.551Z,2732
2016-12-27T12:19:21.815Z,2760
2016-12-27T12:20:27.017Z,2776
2016-12-27T12:21:32.304Z,2796
2016-12-27T12:22:36.588Z,2780
2016-12-27T12:23:42.727Z,2632
2016-12-27T12:24:48.891Z,2648
2016-12-27T12:25:53.120Z,2580
2016-12-27T12:26:58.302Z,2640
2016-12-27T12:28:03.593Z,2668
2016-12-27T12:29:08.894Z,2700
2016-12-27T12:30:14.083Z,2744
2016-12-27T12:31:20.257Z,2712
2016-12-27T12:32:25.457Z,2716
2016-12-27T12:33:30.667Z,2604
2016-12-27T12:34:36.834Z,2580
2016-12-27T12:35:42.043Z,2592
2016-12-27T12:36:47.222Z,2604
2016-12-27T12:37:52.433Z,2584
2016-12-27T12:38:58.606Z,2548
2016-12-27T12:40:03.883Z,2524
2016-12-27T12:41:09.993Z,2516
2016-12-27T12:42:16.172Z,2520
2016-12-27T12:43:21.427Z,2512
2016-12-27T12:44:25.655Z,2492
2016-12-27T12:45:30.800Z,2492
2016-12-27T12:46:35.037Z,2488
2016-12-27T12:47:41.208Z,2476
2016-12-27T12:48:45.510Z,2464
2016-12-27T12:49:51.679Z,2460
2016-12-27T12:50:55.953Z,2468
2016-12-27T12:52:02.121Z,2468
2016-12-27T12:53:07.301Z,2480
2016-12-27T12:54:12.553Z,2508
2016-12-27T12:55:18.710Z,2532
2016-12-27T12:56:22.947Z,2528
2016-12-27T12:57:29.175Z,2536
2016-12-27T12:58:33.408Z,2580
2016-12-27T12:59:39.580Z,2604
2016-12-27T13:00:44.793Z,2624
2016-12-27T13:01:51.012Z,2680
2016-12-27T13:02:57.149Z,2644
2016-12-27T13:04:02.356Z,2616
2016-12-27T13:05:07.492Z,2532
2016-12-27T13:06:11.765Z,2708
2016-12-27T13:07:17.912Z,2688
2016-12-27T13:08:24.073Z,3384
2016-12-27T13:09:29.286Z,3448
2016-12-27T13:10:33.497Z,3680
2016-12-27T13:11:37.740Z,4072
2016-12-27T13:12:41.978Z,4648
2016-12-27T13:13:48.153Z,4048
2016-12-27T13:14:53.370Z,3608
2016-12-27T13:15:57.667Z,3296
2016-12-27T13:17:01.993Z,3232
2016-12-27T13:18:06.165Z,3320
2016-12-27T13:19:12.338Z,3760
2016-12-27T13:20:18.615Z,3284
2016-12-27T13:21:23.798Z,3300
2016-12-27T13:22:28.943Z,3348
2016-12-27T13:23:35.189Z,3348
2016-12-27T13:24:40.421Z,3132
2016-12-27T13:25:45.610Z,3520
2016-12-27T13:26:49.932Z,3652
2016-12-27T13:27:55.143Z,3376
2016-12-27T13:29:00.355Z,3248
2016-12-27T13:30:05.515Z,3472
2016-12-27T13:31:10.685Z,3344
2016-12-27T13:32:15.902Z,2708
2016-12-27T13:33:21.100Z,2880
2016-12-27T13:34:27.279Z,2680
2016-12-27T13:35:32.481Z,2672
2016-12-27T13:36:38.755Z,2476
2016-12-27T13:37:43.004Z,2548
2016-12-27T13:38:49.181Z,2904
2016-12-27T13:39:55.364Z,2696
2016-12-27T13:40:59.577Z,2736
2016-12-27T13:42:05.882Z,2724
2016-12-27T13:43:11.189Z,2532
2016-12-27T13:44:17.394Z,2900
2016-12-27T13:45:22.575Z,3240
2016-12-27T13:46:24.874Z,2840
2016-12-27T13:47:31.055Z,2424
2016-12-27T13:48:37.226Z,2544
2016-12-27T13:49:43.396Z,2364
2016-12-27T13:50:48.597Z,2048
2016-12-27T13:51:54.835Z,2000
2016-12-27T13:53:00.009Z,1940
2016-12-27T13:54:05.215Z,2008
2016-12-27T13:55:11.388Z,1696
2016-12-27T13:56:17.615Z,1536
2016-12-27T13:57:23.872Z,1876
2016-12-27T13:58:30.042Z,1812
2016-12-27T13:59:36.210Z,1604
2016-12-27T14:00:42.379Z,1728
2016-12-27T14:01:45.619Z,1628
2016-12-27T14:03:56.132Z,1612
2016-12-27T14:05:02.303Z,1696
2016-12-27T14:06:06.189Z,1632
2016-12-27T14:07:10.500Z,1732
2016-12-27T14:08:16.583Z,1768
2016-12-27T14:09:22.758Z,1844
2016-12-27T14:10:28.926Z,1976
2016-12-27T14:11:35.192Z,1884
2016-12-27T14:12:41.448Z,2084
2016-12-27T14:13:47.615Z,2036
2016-12-27T14:14:53.820Z,1888
2016-12-27T14:15:58.999Z,1800
2016-12-27T14:17:05.243Z,1716
2016-12-27T14:18:10.450Z,1788
2016-12-27T14:19:15.695Z,1704
2016-12-27T14:20:21.908Z,1824
2016-12-27T14:21:27.086Z,2084
2016-12-27T14:22:33.255Z,2168
2016-12-27T14:23:37.493Z,2028
2016-12-27T14:24:41.704Z,2000
2016-12-27T14:25:46.884Z,1944
2016-12-27T14:26:51.110Z,1832
2016-12-27T14:27:57.279Z,1584
2016-12-27T14:29:03.458Z,1444
2016-12-27T14:30:09.641Z,1332
2016-12-27T14:31:14.918Z,1392
2016-12-27T14:32:21.092Z,1328
2016-12-27T14:33:27.275Z,1156
2016-12-27T14:34:32.529Z,996
2016-12-27T14:35:38.742Z,968
2016-12-27T14:36:43.917Z,892
2016-12-27T14:37:48.151Z,952
2016-12-27T14:38:54.327Z,872
2016-12-27T14:40:00.513Z,720
2016-12-27T14:41:06.683Z,636
2016-12-27T14:42:10.923Z,552
2016-12-27T14:43:17.102Z,648
2016-12-27T14:44:22.319Z,580
2016-12-27T14:45:28.564Z,592
2016-12-27T14:46:32.806Z,624
2016-12-27T14:47:38.017Z,556
2016-12-27T14:48:43.229Z,648
2016-12-27T14:49:47.468Z,584
2016-12-27T14:50:52.826Z,640
2016-12-27T14:51:58.992Z,672
2016-12-27T14:53:03.296Z,676
2016-12-27T14:54:08.493Z,668
2016-12-27T14:55:14.664Z,632
2016-12-27T14:56:19.866Z,636
2016-12-27T14:57:26.066Z,636
2016-12-27T14:58:32.230Z,532
2016-12-27T14:59:38.493Z,512
2016-12-27T15:00:42.704Z,488
2016-12-27T15:01:47.997Z,436
2016-12-27T15:02:54.171Z,452
2016-12-27T15:03:58.386Z,448
2016-12-27T15:05:04.553Z,420
2016-12-27T15:06:09.753Z,388
2016-12-27T15:07:15.038Z,340
2016-12-27T15:08:19.247Z,304
2016-12-27T15:09:24.771Z,244
2016-12-27T15:10:30.935Z,232
2016-12-27T15:11:37.123Z,212
2016-12-27T15:12:43.290Z,180
2016-12-27T15:13:48.488Z,180
2016-12-27T15:14:53.655Z,200
2016-12-27T15:15:59.827Z,184
2016-12-27T15:17:04.997Z,160
2016-12-27T15:18:11.170Z,164
2016-12-27T15:19:15.377Z,152